sensor_id;sensor_type;location;lat;lon;timestamp;P1;durP1;ratioP1;P2;durP2;ratioP2
16994;SDS011;8614;48.522;9.206;2022-10-16T00:00:38;2.80;;;2.60;;
16994;SDS011;8614;48.522;9.206;2022-10-16T00:03:07;3.97;;;3.73;;
16994;SDS011;8614;48.522;9.206;2022-10-16T00:05:38;11.13;;;10.53;;
16994;SDS011;8614;48.522;9.206;2022-10-16T00:08:06;5.07;;;4.77;;
16994;SDS011;8614;48.522;9.206;2022-10-16T00:10:33;8.30;;;7.80;;
16994;SDS011;8614;48.522;9.206;2022-10-16T00:13:00;6.10;;;5.60;;
16994;SDS011;8614;48.522;9.206;2022-10-16T00:15:27;2.90;;;2.70;;
16994;SDS011;8614;48.522;9.206;2022-10-16T00:17:55;4.80;;;4.50;;
16994;SDS011;8614;48.522;9.206;2022-10-16T00:20:22;6.73;;;6.33;;
16994;SDS011;8614;48.522;9.206;2022-10-16T00:22:49;10.50;;;9.90;;
16994;SDS011;8614;48.522;9.206;2022-10-16T00:25:16;10.20;;;9.60;;
16994;SDS011;8614;48.522;9.206;2022-10-16T00:27:43;10.13;;;9.53;;
16994;SDS011;8614;48.522;9.206;2022-10-16T00:30:10;10.60;;;10.00;;
16994;SDS011;8614;48.522;9.206;2022-10-16T00:32:37;10.37;;;9.67;;
16994;SDS011;8614;48.522;9.206;2022-10-16T00:35:05;9.83;;;9.23;;
16994;SDS011;8614;48.522;9.206;2022-10-16T00:37:32;10.50;;;9.80;;
16994;SDS011;8614;48.522;9.206;2022-10-16T00:39:59;10.33;;;9.73;;
16994;SDS011;8614;48.522;9.206;2022-10-16T00:42:26;10.30;;;9.80;;
16994;SDS011;8614;48.522;9.206;2022-10-16T00:44:53;9.93;;;9.43;;
16994;SDS011;8614;48.522;9.206;2022-10-16T00:47:23;10.20;;;9.60;;
16994;SDS011;8614;48.522;9.206;2022-10-16T00:49:55;10.47;;;9.87;;
16994;SDS011;8614;48.522;9.206;2022-10-16T00:52:26;10.50;;;9.90;;
16994;SDS011;8614;48.522;9.206;2022-10-16T00:54:53;10.30;;;9.70;;
16994;SDS011;8614;48.522;9.206;2022-10-16T00:57:21;10.33;;;9.73;;
16994;SDS011;8614;48.522;9.206;2022-10-16T00:59:48;10.37;;;9.77;;
16994;SDS011;8614;48.522;9.206;2022-10-16T01:02:15;10.40;;;9.80;;
16994;SDS011;8614;48.522;9.206;2022-10-16T01:04:44;10.30;;;9.70;;
16994;SDS011;8614;48.522;9.206;2022-10-16T01:07:14;10.30;;;9.70;;
16994;SDS011;8614;48.522;9.206;2022-10-16T01:09:56;10.40;;;9.80;;
16994;SDS011;8614;48.522;9.206;2022-10-16T01:12:31;11.00;;;10.30;;
16994;SDS011;8614;48.522;9.206;2022-10-16T01:15:04;10.50;;;9.90;;
16994;SDS011;8614;48.522;9.206;2022-10-16T01:17:39;10.60;;;10.00;;
16994;SDS011;8614;48.522;9.206;2022-10-16T01:20:12;10.27;;;9.67;;
16994;SDS011;8614;48.522;9.206;2022-10-16T01:22:49;10.53;;;9.93;;
16994;SDS011;8614;48.522;9.206;2022-10-16T01:25:29;10.60;;;10.00;;
16994;SDS011;8614;48.522;9.206;2022-10-16T01:28:07;10.37;;;9.77;;
16994;SDS011;8614;48.522;9.206;2022-10-16T01:30:37;10.60;;;10.00;;
16994;SDS011;8614;48.522;9.206;2022-10-16T01:33:07;10.57;;;9.97;;
16994;SDS011;8614;48.522;9.206;2022-10-16T01:35:39;10.90;;;10.30;;
16994;SDS011;8614;48.522;9.206;2022-10-16T01:38:10;11.30;;;10.60;;
16994;SDS011;8614;48.522;9.206;2022-10-16T01:40:41;11.20;;;10.50;;
16994;SDS011;8614;48.522;9.206;2022-10-16T01:43:15;11.10;;;10.40;;
16994;SDS011;8614;48.522;9.206;2022-10-16T01:45:45;11.07;;;10.40;;
16994;SDS011;8614;48.522;9.206;2022-10-16T01:48:12;10.83;;;10.23;;
16994;SDS011;8614;48.522;9.206;2022-10-16T01:50:43;10.90;;;10.30;;
16994;SDS011;8614;48.522;9.206;2022-10-16T01:53:12;7.03;;;6.50;;
16994;SDS011;8614;48.522;9.206;2022-10-16T01:55:41;5.87;;;5.47;;
16994;SDS011;8614;48.522;9.206;2022-10-16T01:58:10;7.47;;;6.87;;
16994;SDS011;8614;48.522;9.206;2022-10-16T02:00:41;6.40;;;5.00;;
16994;SDS011;8614;48.522;9.206;2022-10-16T02:03:11;3.70;;;3.40;;
16994;SDS011;8614;48.522;9.206;2022-10-16T02:05:41;4.23;;;3.83;;
16994;SDS011;8614;48.522;9.206;2022-10-16T02:08:11;6.60;;;6.13;;
16994;SDS011;8614;48.522;9.206;2022-10-16T02:10:38;8.07;;;7.30;;
16994;SDS011;8614;48.522;9.206;2022-10-16T02:13:06;9.70;;;8.90;;
16994;SDS011;8614;48.522;9.206;2022-10-16T02:15:36;7.53;;;7.03;;
16994;SDS011;8614;48.522;9.206;2022-10-16T02:18:04;7.87;;;7.37;;
16994;SDS011;8614;48.522;9.206;2022-10-16T02:20:34;8.40;;;7.90;;
16994;SDS011;8614;48.522;9.206;2022-10-16T02:23:06;9.90;;;9.20;;
16994;SDS011;8614;48.522;9.206;2022-10-16T02:25:37;9.43;;;8.83;;
16994;SDS011;8614;48.522;9.206;2022-10-16T02:28:08;9.20;;;8.60;;
16994;SDS011;8614;48.522;9.206;2022-10-16T02:30:42;9.40;;;8.80;;
16994;SDS011;8614;48.522;9.206;2022-10-16T02:33:15;9.63;;;9.03;;
16994;SDS011;8614;48.522;9.206;2022-10-16T02:35:44;9.57;;;8.97;;
16994;SDS011;8614;48.522;9.206;2022-10-16T02:38:14;9.53;;;8.93;;
16994;SDS011;8614;48.522;9.206;2022-10-16T02:40:42;8.93;;;8.13;;
16994;SDS011;8614;48.522;9.206;2022-10-16T02:43:09;5.30;;;5.00;;
16994;SDS011;8614;48.522;9.206;2022-10-16T02:45:37;8.53;;;7.93;;
16994;SDS011;8614;48.522;9.206;2022-10-16T02:48:04;13.47;;;12.67;;
16994;SDS011;8614;48.522;9.206;2022-10-16T02:50:33;11.63;;;10.93;;
16994;SDS011;8614;48.522;9.206;2022-10-16T02:53:00;12.00;;;11.20;;
16994;SDS011;8614;48.522;9.206;2022-10-16T02:55:27;11.70;;;11.00;;
16994;SDS011;8614;48.522;9.206;2022-10-16T02:57:54;12.10;;;11.40;;
16994;SDS011;8614;48.522;9.206;2022-10-16T03:00:21;12.40;;;11.60;;
16994;SDS011;8614;48.522;9.206;2022-10-16T03:02:49;11.40;;;10.70;;
16994;SDS011;8614;48.522;9.206;2022-10-16T03:05:16;11.77;;;11.07;;
16994;SDS011;8614;48.522;9.206;2022-10-16T03:07:45;11.87;;;11.17;;
16994;SDS011;8614;48.522;9.206;2022-10-16T03:10:11;11.87;;;11.17;;
16994;SDS011;8614;48.522;9.206;2022-10-16T03:12:38;12.73;;;11.83;;
16994;SDS011;8614;48.522;9.206;2022-10-16T03:15:05;12.67;;;11.87;;
16994;SDS011;8614;48.522;9.206;2022-10-16T03:17:33;12.90;;;12.10;;
16994;SDS011;8614;48.522;9.206;2022-10-16T03:20:00;12.70;;;11.90;;
16994;SDS011;8614;48.522;9.206;2022-10-16T03:22:27;12.73;;;11.83;;
16994;SDS011;8614;48.522;9.206;2022-10-16T03:24:55;12.83;;;12.03;;
16994;SDS011;8614;48.522;9.206;2022-10-16T03:27:22;12.90;;;12.03;;
16994;SDS011;8614;48.522;9.206;2022-10-16T03:29:49;12.70;;;11.90;;
16994;SDS011;8614;48.522;9.206;2022-10-16T03:32:15;12.13;;;11.43;;
16994;SDS011;8614;48.522;9.206;2022-10-16T03:34:43;11.20;;;10.40;;
16994;SDS011;8614;48.522;9.206;2022-10-16T03:37:10;11.60;;;10.90;;
16994;SDS011;8614;48.522;9.206;2022-10-16T03:39:37;12.70;;;11.80;;
16994;SDS011;8614;48.522;9.206;2022-10-16T03:42:05;12.73;;;11.77;;
16994;SDS011;8614;48.522;9.206;2022-10-16T03:44:32;12.20;;;11.50;;
16994;SDS011;8614;48.522;9.206;2022-10-16T03:46:59;12.47;;;11.77;;
16994;SDS011;8614;48.522;9.206;2022-10-16T03:49:26;12.40;;;11.70;;
16994;SDS011;8614;48.522;9.206;2022-10-16T03:51:53;12.83;;;12.03;;
16994;SDS011;8614;48.522;9.206;2022-10-16T03:54:20;12.33;;;11.63;;
16994;SDS011;8614;48.522;9.206;2022-10-16T03:56:47;12.93;;;11.93;;
16994;SDS011;8614;48.522;9.206;2022-10-16T03:59:15;12.37;;;11.67;;
16994;SDS011;8614;48.522;9.206;2022-10-16T04:01:42;12.20;;;11.50;;
16994;SDS011;8614;48.522;9.206;2022-10-16T04:04:09;12.23;;;11.53;;
16994;SDS011;8614;48.522;9.206;2022-10-16T04:06:36;12.20;;;11.50;;
16994;SDS011;8614;48.522;9.206;2022-10-16T04:09:03;12.73;;;12.00;;
16994;SDS011;8614;48.522;9.206;2022-10-16T04:11:30;12.87;;;12.07;;
16994;SDS011;8614;48.522;9.206;2022-10-16T04:13:57;13.07;;;12.33;;
16994;SDS011;8614;48.522;9.206;2022-10-16T04:16:26;12.63;;;11.93;;
16994;SDS011;8614;48.522;9.206;2022-10-16T04:18:53;12.70;;;11.90;;
16994;SDS011;8614;48.522;9.206;2022-10-16T04:21:19;12.87;;;12.17;;
16994;SDS011;8614;48.522;9.206;2022-10-16T04:23:47;12.90;;;12.10;;
16994;SDS011;8614;48.522;9.206;2022-10-16T04:26:14;12.90;;;12.20;;
16994;SDS011;8614;48.522;9.206;2022-10-16T04:28:41;12.87;;;12.00;;
16994;SDS011;8614;48.522;9.206;2022-10-16T04:31:14;12.73;;;12.03;;
16994;SDS011;8614;48.522;9.206;2022-10-16T04:33:43;12.57;;;11.87;;
16994;SDS011;8614;48.522;9.206;2022-10-16T04:36:10;13.47;;;12.40;;
16994;SDS011;8614;48.522;9.206;2022-10-16T04:38:37;13.50;;;12.70;;
16994;SDS011;8614;48.522;9.206;2022-10-16T04:41:04;13.03;;;12.33;;
16994;SDS011;8614;48.522;9.206;2022-10-16T04:43:32;13.37;;;12.57;;
16994;SDS011;8614;48.522;9.206;2022-10-16T04:45:59;12.63;;;11.93;;
16994;SDS011;8614;48.522;9.206;2022-10-16T04:48:26;12.50;;;11.80;;
16994;SDS011;8614;48.522;9.206;2022-10-16T04:50:55;13.60;;;12.80;;
16994;SDS011;8614;48.522;9.206;2022-10-16T04:53:22;12.83;;;12.13;;
16994;SDS011;8614;48.522;9.206;2022-10-16T04:55:49;12.80;;;12.10;;
16994;SDS011;8614;48.522;9.206;2022-10-16T04:58:17;13.30;;;12.50;;
16994;SDS011;8614;48.522;9.206;2022-10-16T05:00:43;13.83;;;13.03;;
16994;SDS011;8614;48.522;9.206;2022-10-16T05:03:11;13.50;;;12.70;;
16994;SDS011;8614;48.522;9.206;2022-10-16T05:05:41;13.70;;;12.80;;
16994;SDS011;8614;48.522;9.206;2022-10-16T05:08:11;13.20;;;12.40;;
16994;SDS011;8614;48.522;9.206;2022-10-16T05:10:38;13.57;;;12.77;;
16994;SDS011;8614;48.522;9.206;2022-10-16T05:13:07;13.80;;;12.97;;
16994;SDS011;8614;48.522;9.206;2022-10-16T05:15:34;12.87;;;12.07;;
16994;SDS011;8614;48.522;9.206;2022-10-16T05:18:01;12.50;;;11.80;;
16994;SDS011;8614;48.522;9.206;2022-10-16T05:20:28;13.00;;;12.17;;
16994;SDS011;8614;48.522;9.206;2022-10-16T05:22:55;12.63;;;11.93;;
16994;SDS011;8614;48.522;9.206;2022-10-16T05:25:23;13.07;;;12.37;;
16994;SDS011;8614;48.522;9.206;2022-10-16T05:27:50;13.60;;;12.70;;
16994;SDS011;8614;48.522;9.206;2022-10-16T05:30:17;13.57;;;12.77;;
16994;SDS011;8614;48.522;9.206;2022-10-16T05:32:48;13.00;;;12.30;;
16994;SDS011;8614;48.522;9.206;2022-10-16T05:35:16;13.00;;;12.30;;
16994;SDS011;8614;48.522;9.206;2022-10-16T05:37:52;13.33;;;12.53;;
16994;SDS011;8614;48.522;9.206;2022-10-16T05:40:19;14.20;;;13.40;;
16994;SDS011;8614;48.522;9.206;2022-10-16T05:42:48;13.67;;;12.80;;
16994;SDS011;8614;48.522;9.206;2022-10-16T05:45:15;12.93;;;12.13;;
16994;SDS011;8614;48.522;9.206;2022-10-16T05:47:42;13.27;;;12.10;;
16994;SDS011;8614;48.522;9.206;2022-10-16T05:50:09;12.87;;;12.17;;
16994;SDS011;8614;48.522;9.206;2022-10-16T05:52:36;13.33;;;12.63;;
16994;SDS011;8614;48.522;9.206;2022-10-16T05:55:03;12.93;;;12.23;;
16994;SDS011;8614;48.522;9.206;2022-10-16T05:57:30;12.87;;;12.17;;
16994;SDS011;8614;48.522;9.206;2022-10-16T05:59:59;12.87;;;12.17;;
16994;SDS011;8614;48.522;9.206;2022-10-16T06:02:26;13.07;;;12.27;;
16994;SDS011;8614;48.522;9.206;2022-10-16T06:04:53;12.90;;;12.10;;
16994;SDS011;8614;48.522;9.206;2022-10-16T06:07:21;12.80;;;12.10;;
16994;SDS011;8614;48.522;9.206;2022-10-16T06:09:48;13.23;;;12.53;;
16994;SDS011;8614;48.522;9.206;2022-10-16T06:12:19;13.17;;;12.47;;
16994;SDS011;8614;48.522;9.206;2022-10-16T06:14:46;13.83;;;13.03;;
16994;SDS011;8614;48.522;9.206;2022-10-16T06:17:15;12.90;;;12.20;;
16994;SDS011;8614;48.522;9.206;2022-10-16T06:19:43;13.27;;;12.47;;
16994;SDS011;8614;48.522;9.206;2022-10-16T06:22:10;13.67;;;12.60;;
16994;SDS011;8614;48.522;9.206;2022-10-16T06:24:37;10.13;;;9.33;;
16994;SDS011;8614;48.522;9.206;2022-10-16T06:27:04;7.37;;;6.87;;
16994;SDS011;8614;48.522;9.206;2022-10-16T06:29:34;4.93;;;4.63;;
16994;SDS011;8614;48.522;9.206;2022-10-16T06:32:01;8.17;;;7.67;;
16994;SDS011;8614;48.522;9.206;2022-10-16T06:34:29;5.77;;;5.17;;
16994;SDS011;8614;48.522;9.206;2022-10-16T06:36:56;6.40;;;5.87;;
16994;SDS011;8614;48.522;9.206;2022-10-16T06:39:25;3.70;;;3.50;;
16994;SDS011;8614;48.522;9.206;2022-10-16T06:41:58;3.67;;;3.40;;
16994;SDS011;8614;48.522;9.206;2022-10-16T06:44:33;4.27;;;3.70;;
16994;SDS011;8614;48.522;9.206;2022-10-16T06:47:04;12.03;;;11.33;;
16994;SDS011;8614;48.522;9.206;2022-10-16T06:49:32;12.83;;;12.03;;
16994;SDS011;8614;48.522;9.206;2022-10-16T06:52:05;7.10;;;4.73;;
16994;SDS011;8614;48.522;9.206;2022-10-16T06:54:37;4.17;;;3.73;;
16994;SDS011;8614;48.522;9.206;2022-10-16T06:57:04;5.10;;;4.60;;
16994;SDS011;8614;48.522;9.206;2022-10-16T06:59:31;6.00;;;4.70;;
16994;SDS011;8614;48.522;9.206;2022-10-16T07:01:58;5.10;;;4.60;;
16994;SDS011;8614;48.522;9.206;2022-10-16T07:04:25;4.80;;;4.40;;
16994;SDS011;8614;48.522;9.206;2022-10-16T07:06:53;4.97;;;4.43;;
16994;SDS011;8614;48.522;9.206;2022-10-16T07:09:20;6.40;;;5.90;;
16994;SDS011;8614;48.522;9.206;2022-10-16T07:11:50;4.97;;;3.90;;
16994;SDS011;8614;48.522;9.206;2022-10-16T07:14:18;4.73;;;4.33;;
16994;SDS011;8614;48.522;9.206;2022-10-16T07:16:50;4.00;;;3.70;;
16994;SDS011;8614;48.522;9.206;2022-10-16T07:19:19;7.33;;;6.77;;
16994;SDS011;8614;48.522;9.206;2022-10-16T07:21:46;4.70;;;4.30;;
16994;SDS011;8614;48.522;9.206;2022-10-16T07:24:15;4.27;;;3.87;;
16994;SDS011;8614;48.522;9.206;2022-10-16T07:26:43;5.20;;;4.57;;
16994;SDS011;8614;48.522;9.206;2022-10-16T07:29:12;4.43;;;4.03;;
16994;SDS011;8614;48.522;9.206;2022-10-16T07:31:40;4.10;;;3.80;;
16994;SDS011;8614;48.522;9.206;2022-10-16T07:34:08;4.23;;;3.83;;
16994;SDS011;8614;48.522;9.206;2022-10-16T07:36:36;11.37;;;10.67;;
16994;SDS011;8614;48.522;9.206;2022-10-16T07:39:08;10.40;;;9.70;;
16994;SDS011;8614;48.522;9.206;2022-10-16T07:41:39;8.00;;;7.50;;
16994;SDS011;8614;48.522;9.206;2022-10-16T07:44:10;5.97;;;5.57;;
16994;SDS011;8614;48.522;9.206;2022-10-16T07:46:43;4.70;;;4.30;;
16994;SDS011;8614;48.522;9.206;2022-10-16T07:49:10;6.50;;;6.00;;
16994;SDS011;8614;48.522;9.206;2022-10-16T07:51:39;7.10;;;6.70;;
16994;SDS011;8614;48.522;9.206;2022-10-16T07:54:07;11.67;;;10.80;;
16994;SDS011;8614;48.522;9.206;2022-10-16T07:56:40;6.60;;;6.20;;
16994;SDS011;8614;48.522;9.206;2022-10-16T07:59:09;3.40;;;3.20;;
16994;SDS011;8614;48.522;9.206;2022-10-16T08:01:36;3.13;;;2.93;;
16994;SDS011;8614;48.522;9.206;2022-10-16T08:04:03;10.57;;;9.70;;
16994;SDS011;8614;48.522;9.206;2022-10-16T08:06:34;9.37;;;8.67;;
16994;SDS011;8614;48.522;9.206;2022-10-16T08:09:03;8.10;;;7.27;;
16994;SDS011;8614;48.522;9.206;2022-10-16T08:11:30;9.40;;;8.80;;
16994;SDS011;8614;48.522;9.206;2022-10-16T08:13:59;8.00;;;7.50;;
16994;SDS011;8614;48.522;9.206;2022-10-16T08:16:29;9.13;;;8.60;;
16994;SDS011;8614;48.522;9.206;2022-10-16T08:18:56;10.20;;;9.30;;
16994;SDS011;8614;48.522;9.206;2022-10-16T08:21:31;9.13;;;8.43;;
16994;SDS011;8614;48.522;9.206;2022-10-16T08:23:58;4.73;;;4.23;;
16994;SDS011;8614;48.522;9.206;2022-10-16T08:26:26;5.90;;;5.43;;
16994;SDS011;8614;48.522;9.206;2022-10-16T08:28:53;9.53;;;8.93;;
16994;SDS011;8614;48.522;9.206;2022-10-16T08:31:25;10.57;;;9.87;;
16994;SDS011;8614;48.522;9.206;2022-10-16T08:33:55;9.53;;;8.80;;
16994;SDS011;8614;48.522;9.206;2022-10-16T08:36:22;9.97;;;9.27;;
16994;SDS011;8614;48.522;9.206;2022-10-16T08:38:49;6.80;;;6.40;;
16994;SDS011;8614;48.522;9.206;2022-10-16T08:41:23;7.17;;;6.67;;
16994;SDS011;8614;48.522;9.206;2022-10-16T08:44:05;3.97;;;3.47;;
16994;SDS011;8614;48.522;9.206;2022-10-16T08:47:02;3.50;;;3.20;;
16994;SDS011;8614;48.522;9.206;2022-10-16T08:49:37;4.13;;;3.67;;
16994;SDS011;8614;48.522;9.206;2022-10-16T08:52:08;4.47;;;3.07;;
16994;SDS011;8614;48.522;9.206;2022-10-16T08:54:40;3.87;;;3.20;;
16994;SDS011;8614;48.522;9.206;2022-10-16T08:57:11;3.60;;;3.30;;
16994;SDS011;8614;48.522;9.206;2022-10-16T08:59:42;3.30;;;3.00;;
16994;SDS011;8614;48.522;9.206;2022-10-16T09:02:22;3.30;;;3.00;;
16994;SDS011;8614;48.522;9.206;2022-10-16T09:04:54;9.27;;;8.57;;
16994;SDS011;8614;48.522;9.206;2022-10-16T09:07:30;10.53;;;9.83;;
16994;SDS011;8614;48.522;9.206;2022-10-16T09:10:17;5.50;;;4.20;;
16994;SDS011;8614;48.522;9.206;2022-10-16T09:12:54;3.13;;;2.90;;
16994;SDS011;8614;48.522;9.206;2022-10-16T09:15:29;5.17;;;4.87;;
16994;SDS011;8614;48.522;9.206;2022-10-16T09:18:04;8.90;;;8.40;;
16994;SDS011;8614;48.522;9.206;2022-10-16T09:20:39;5.90;;;5.50;;
16994;SDS011;8614;48.522;9.206;2022-10-16T09:23:16;3.07;;;2.80;;
16994;SDS011;8614;48.522;9.206;2022-10-16T09:25:46;3.90;;;3.10;;
16994;SDS011;8614;48.522;9.206;2022-10-16T09:28:15;3.07;;;2.80;;
16994;SDS011;8614;48.522;9.206;2022-10-16T09:30:43;8.40;;;7.80;;
16994;SDS011;8614;48.522;9.206;2022-10-16T09:33:15;5.37;;;5.00;;
16994;SDS011;8614;48.522;9.206;2022-10-16T09:35:48;2.83;;;2.63;;
16994;SDS011;8614;48.522;9.206;2022-10-16T09:38:20;2.90;;;2.70;;
16994;SDS011;8614;48.522;9.206;2022-10-16T09:40:51;3.00;;;2.80;;
16994;SDS011;8614;48.522;9.206;2022-10-16T09:43:21;3.17;;;2.97;;
16994;SDS011;8614;48.522;9.206;2022-10-16T09:45:53;2.57;;;2.40;;
16994;SDS011;8614;48.522;9.206;2022-10-16T09:48:23;6.90;;;6.50;;
16994;SDS011;8614;48.522;9.206;2022-10-16T09:50:56;9.87;;;9.27;;
16994;SDS011;8614;48.522;9.206;2022-10-16T09:53:24;8.73;;;8.23;;
16994;SDS011;8614;48.522;9.206;2022-10-16T09:56:03;7.97;;;7.53;;
16994;SDS011;8614;48.522;9.206;2022-10-16T09:58:31;7.00;;;6.60;;
16994;SDS011;8614;48.522;9.206;2022-10-16T10:00:59;3.23;;;2.90;;
16994;SDS011;8614;48.522;9.206;2022-10-16T10:03:35;2.97;;;2.77;;
16994;SDS011;8614;48.522;9.206;2022-10-16T10:06:06;8.30;;;7.80;;
16994;SDS011;8614;48.522;9.206;2022-10-16T10:08:52;3.83;;;3.63;;
16994;SDS011;8614;48.522;9.206;2022-10-16T10:14:20;2.87;;;2.67;;
16994;SDS011;8614;48.522;9.206;2022-10-16T10:16:49;3.03;;;2.83;;
16994;SDS011;8614;48.522;9.206;2022-10-16T10:19:19;2.80;;;2.60;;
16994;SDS011;8614;48.522;9.206;2022-10-16T10:21:47;9.67;;;9.10;;
16994;SDS011;8614;48.522;9.206;2022-10-16T10:24:15;8.90;;;8.40;;
16994;SDS011;8614;48.522;9.206;2022-10-16T10:26:46;10.63;;;10.03;;
16994;SDS011;8614;48.522;9.206;2022-10-16T10:29:24;10.37;;;9.77;;
16994;SDS011;8614;48.522;9.206;2022-10-16T10:32:03;10.47;;;9.87;;
16994;SDS011;8614;48.522;9.206;2022-10-16T10:34:43;10.80;;;10.20;;
16994;SDS011;8614;48.522;9.206;2022-10-16T10:37:24;3.20;;;3.00;;
16994;SDS011;8614;48.522;9.206;2022-10-16T10:40:04;3.10;;;2.90;;
16994;SDS011;8614;48.522;9.206;2022-10-16T10:42:39;2.90;;;2.70;;
16994;SDS011;8614;48.522;9.206;2022-10-16T10:45:24;4.87;;;4.47;;
16994;SDS011;8614;48.522;9.206;2022-10-16T10:47:57;7.50;;;7.00;;
16994;SDS011;8614;48.522;9.206;2022-10-16T10:50:35;8.73;;;8.23;;
16994;SDS011;8614;48.522;9.206;2022-10-16T10:53:07;8.53;;;8.03;;
16994;SDS011;8614;48.522;9.206;2022-10-16T10:55:45;9.27;;;8.77;;
16994;SDS011;8614;48.522;9.206;2022-10-16T11:01:10;9.57;;;9.07;;
16994;SDS011;8614;48.522;9.206;2022-10-16T11:03:46;9.20;;;8.70;;
16994;SDS011;8614;48.522;9.206;2022-10-16T11:06:36;10.40;;;9.70;;
16994;SDS011;8614;48.522;9.206;2022-10-16T11:09:08;10.00;;;9.40;;
16994;SDS011;8614;48.522;9.206;2022-10-16T11:11:40;9.37;;;8.77;;
16994;SDS011;8614;48.522;9.206;2022-10-16T11:14:13;10.27;;;9.57;;
16994;SDS011;8614;48.522;9.206;2022-10-16T11:16:44;10.17;;;9.40;;
16994;SDS011;8614;48.522;9.206;2022-10-16T11:19:18;9.07;;;7.30;;
16994;SDS011;8614;48.522;9.206;2022-10-16T11:24:41;8.23;;;7.53;;
16994;SDS011;8614;48.522;9.206;2022-10-16T11:27:14;7.93;;;7.33;;
16994;SDS011;8614;48.522;9.206;2022-10-16T11:29:46;9.67;;;9.07;;
16994;SDS011;8614;48.522;9.206;2022-10-16T11:32:19;8.53;;;8.00;;
16994;SDS011;8614;48.522;9.206;2022-10-16T11:34:50;9.33;;;8.80;;
16994;SDS011;8614;48.522;9.206;2022-10-16T11:37:24;7.00;;;6.60;;
16994;SDS011;8614;48.522;9.206;2022-10-16T11:39:57;4.70;;;4.37;;
16994;SDS011;8614;48.522;9.206;2022-10-16T11:42:37;2.70;;;2.50;;
16994;SDS011;8614;48.522;9.206;2022-10-16T11:45:08;4.10;;;3.80;;
16994;SDS011;8614;48.522;9.206;2022-10-16T11:47:48;8.00;;;7.57;;
16994;SDS011;8614;48.522;9.206;2022-10-16T11:50:23;10.80;;;9.93;;
16994;SDS011;8614;48.522;9.206;2022-10-16T11:52:57;11.20;;;10.20;;
16994;SDS011;8614;48.522;9.206;2022-10-16T11:55:31;13.97;;;12.97;;
16994;SDS011;8614;48.522;9.206;2022-10-16T11:58:03;9.87;;;9.07;;
16994;SDS011;8614;48.522;9.206;2022-10-16T12:00:35;10.60;;;9.63;;
16994;SDS011;8614;48.522;9.206;2022-10-16T12:03:09;10.13;;;9.23;;
16994;SDS011;8614;48.522;9.206;2022-10-16T12:05:54;11.57;;;8.03;;
16994;SDS011;8614;48.522;9.206;2022-10-16T12:08:39;10.07;;;7.90;;
16994;SDS011;8614;48.522;9.206;2022-10-16T12:11:08;8.93;;;7.30;;
16994;SDS011;8614;48.522;9.206;2022-10-16T12:13:37;11.93;;;9.17;;
16994;SDS011;8614;48.522;9.206;2022-10-16T12:16:06;9.00;;;6.43;;
16994;SDS011;8614;48.522;9.206;2022-10-16T12:18:46;6.87;;;5.80;;
16994;SDS011;8614;48.522;9.206;2022-10-16T12:21:14;7.10;;;5.63;;
16994;SDS011;8614;48.522;9.206;2022-10-16T12:23:48;12.33;;;11.27;;
16994;SDS011;8614;48.522;9.206;2022-10-16T12:26:23;5.70;;;5.10;;
16994;SDS011;8614;48.522;9.206;2022-10-16T12:28:51;5.77;;;5.17;;
16994;SDS011;8614;48.522;9.206;2022-10-16T12:31:19;8.53;;;7.20;;
16994;SDS011;8614;48.522;9.206;2022-10-16T12:33:55;6.47;;;5.87;;
16994;SDS011;8614;48.522;9.206;2022-10-16T12:36:28;7.33;;;5.70;;
16994;SDS011;8614;48.522;9.206;2022-10-16T12:38:57;7.27;;;6.57;;
16994;SDS011;8614;48.522;9.206;2022-10-16T12:41:26;5.23;;;4.70;;
16994;SDS011;8614;48.522;9.206;2022-10-16T12:43:55;7.37;;;6.67;;
16994;SDS011;8614;48.522;9.206;2022-10-16T12:46:36;9.57;;;8.87;;
16994;SDS011;8614;48.522;9.206;2022-10-16T12:49:20;9.37;;;8.77;;
16994;SDS011;8614;48.522;9.206;2022-10-16T12:51:49;9.13;;;8.33;;
16994;SDS011;8614;48.522;9.206;2022-10-16T12:54:18;7.97;;;7.23;;
16994;SDS011;8614;48.522;9.206;2022-10-16T13:00:28;4.13;;;3.30;;
16994;SDS011;8614;48.522;9.206;2022-10-16T13:06:35;2.75;;;2.55;;
16994;SDS011;8614;48.522;9.206;2022-10-16T13:09:13;2.60;;;2.50;;
16994;SDS011;8614;48.522;9.206;2022-10-16T13:11:59;8.50;;;7.90;;
16994;SDS011;8614;48.522;9.206;2022-10-16T13:14:40;7.20;;;6.70;;
16994;SDS011;8614;48.522;9.206;2022-10-16T13:17:22;9.13;;;8.53;;
16994;SDS011;8614;48.522;9.206;2022-10-16T13:19:56;3.60;;;3.30;;
16994;SDS011;8614;48.522;9.206;2022-10-16T13:22:33;6.10;;;5.70;;
16994;SDS011;8614;48.522;9.206;2022-10-16T13:25:14;4.90;;;4.60;;
16994;SDS011;8614;48.522;9.206;2022-10-16T13:27:50;8.60;;;8.10;;
16994;SDS011;8614;48.522;9.206;2022-10-16T13:30:22;3.03;;;2.83;;
16994;SDS011;8614;48.522;9.206;2022-10-16T13:32:52;8.97;;;4.17;;
16994;SDS011;8614;48.522;9.206;2022-10-16T13:35:25;17.30;;;15.63;;
16994;SDS011;8614;48.522;9.206;2022-10-16T13:38:02;16.47;;;11.67;;
16994;SDS011;8614;48.522;9.206;2022-10-16T13:40:32;14.30;;;8.10;;
16994;SDS011;8614;48.522;9.206;2022-10-16T13:42:59;7.17;;;6.47;;
16994;SDS011;8614;48.522;9.206;2022-10-16T13:45:27;8.23;;;7.47;;
16994;SDS011;8614;48.522;9.206;2022-10-16T13:48:01;10.17;;;9.47;;
16994;SDS011;8614;48.522;9.206;2022-10-16T13:50:29;9.27;;;8.60;;
16994;SDS011;8614;48.522;9.206;2022-10-16T13:53:03;10.70;;;10.00;;
16994;SDS011;8614;48.522;9.206;2022-10-16T14:42:11;3.47;;;3.13;;
16994;SDS011;8614;48.522;9.206;2022-10-16T14:44:42;2.47;;;2.37;;
16994;SDS011;8614;48.522;9.206;2022-10-16T14:47:10;2.90;;;2.70;;
16994;SDS011;8614;48.522;9.206;2022-10-16T14:49:41;2.63;;;2.43;;
16994;SDS011;8614;48.522;9.206;2022-10-16T14:52:09;5.20;;;4.90;;
16994;SDS011;8614;48.522;9.206;2022-10-16T14:54:39;2.90;;;2.70;;
16994;SDS011;8614;48.522;9.206;2022-10-16T14:57:13;3.30;;;3.10;;
16994;SDS011;8614;48.522;9.206;2022-10-16T14:59:42;3.37;;;3.17;;
16994;SDS011;8614;48.522;9.206;2022-10-16T15:02:15;3.43;;;3.23;;
16994;SDS011;8614;48.522;9.206;2022-10-16T15:04:47;8.50;;;8.00;;
16994;SDS011;8614;48.522;9.206;2022-10-16T15:07:14;3.63;;;3.43;;
16994;SDS011;8614;48.522;9.206;2022-10-16T15:09:42;8.37;;;7.87;;
16994;SDS011;8614;48.522;9.206;2022-10-16T15:12:09;8.87;;;8.37;;
16994;SDS011;8614;48.522;9.206;2022-10-16T15:14:36;7.43;;;7.00;;
16994;SDS011;8614;48.522;9.206;2022-10-16T15:17:03;8.50;;;8.00;;
16994;SDS011;8614;48.522;9.206;2022-10-16T15:19:31;8.10;;;7.60;;
16994;SDS011;8614;48.522;9.206;2022-10-16T15:21:59;8.80;;;8.30;;
16994;SDS011;8614;48.522;9.206;2022-10-16T15:24:25;6.00;;;5.50;;
16994;SDS011;8614;48.522;9.206;2022-10-16T15:26:54;2.47;;;2.30;;
16994;SDS011;8614;48.522;9.206;2022-10-16T15:29:20;2.63;;;2.43;;
16994;SDS011;8614;48.522;9.206;2022-10-16T15:31:47;6.13;;;5.73;;
16994;SDS011;8614;48.522;9.206;2022-10-16T15:34:15;8.57;;;8.07;;
16994;SDS011;8614;48.522;9.206;2022-10-16T15:36:44;9.23;;;8.70;;
16994;SDS011;8614;48.522;9.206;2022-10-16T15:39:12;7.70;;;7.20;;
16994;SDS011;8614;48.522;9.206;2022-10-16T15:41:40;7.67;;;7.17;;
16994;SDS011;8614;48.522;9.206;2022-10-16T15:44:09;7.30;;;6.80;;
16994;SDS011;8614;48.522;9.206;2022-10-16T15:46:36;8.70;;;8.10;;
16994;SDS011;8614;48.522;9.206;2022-10-16T15:49:03;4.50;;;4.20;;
16994;SDS011;8614;48.522;9.206;2022-10-16T15:51:30;3.10;;;2.90;;
16994;SDS011;8614;48.522;9.206;2022-10-16T15:53:58;2.90;;;2.70;;
16994;SDS011;8614;48.522;9.206;2022-10-16T15:56:27;6.40;;;6.00;;
16994;SDS011;8614;48.522;9.206;2022-10-16T15:58:54;5.97;;;5.63;;
16994;SDS011;8614;48.522;9.206;2022-10-16T16:01:26;4.90;;;4.60;;
16994;SDS011;8614;48.522;9.206;2022-10-16T16:03:54;9.30;;;8.70;;
16994;SDS011;8614;48.522;9.206;2022-10-16T16:06:22;9.40;;;8.90;;
16994;SDS011;8614;48.522;9.206;2022-10-16T16:08:49;9.00;;;8.50;;
16994;SDS011;8614;48.522;9.206;2022-10-16T16:11:16;9.00;;;8.50;;